createdAt,value
2018-09-18T00:02:54.677Z,4.47
2018-09-18T00:07:59.151Z,4.53
2018-09-18T00:13:04.489Z,4.45
2018-09-18T00:18:08.946Z,4.40
2018-09-18T00:23:13.515Z,4.90
2018-09-18T00:28:18.764Z,4.75
2018-09-18T00:33:23.418Z,4.55
2018-09-18T00:38:28.348Z,4.45
2018-09-18T00:43:32.809Z,4.80
2018-09-18T00:48:37.460Z,4.05
2018-09-18T00:53:42.079Z,4.37
2018-09-18T00:58:46.595Z,4.78
2018-09-18T01:03:51.073Z,4.22
2018-09-18T01:08:56.207Z,4.42
2018-09-18T01:14:01.246Z,4.55
2018-09-18T01:19:05.738Z,4.75
2018-09-18T01:24:10.507Z,4.75
2018-09-18T01:29:15.676Z,4.90
2018-09-18T01:34:20.997Z,4.42
2018-09-18T01:39:25.553Z,4.22
2018-09-18T01:44:30.300Z,4.85
2018-09-18T01:49:35.582Z,4.40
2018-09-18T01:54:40.110Z,4.37
2018-09-18T01:59:44.559Z,4.90
2018-09-18T02:04:49.830Z,4.53
2018-09-18T02:09:55.356Z,5.03
2018-09-18T02:14:59.865Z,5.10
2018-09-18T02:20:04.729Z,5.92
2018-09-18T02:25:09.259Z,6.28
2018-09-18T02:30:13.792Z,5.75
2018-09-18T02:35:18.464Z,6.50
2018-09-18T02:40:23.165Z,6.42
2018-09-18T02:45:27.700Z,5.95
2018-09-18T02:50:32.219Z,6.30
2018-09-18T02:55:36.857Z,5.70
2018-09-18T03:00:41.333Z,5.15
2018-09-18T03:05:47.302Z,5.30
2018-09-18T03:10:51.820Z,4.37
2018-09-18T03:15:56.265Z,5.10
2018-09-18T03:21:00.854Z,5.58
2018-09-18T03:26:05.316Z,5.15
2018-09-18T03:31:09.860Z,4.35
2018-09-18T03:36:14.288Z,5.10
2018-09-18T03:41:18.851Z,5.60
2018-09-18T03:46:23.479Z,4.78
2018-09-18T03:51:28.195Z,5.97
2018-09-18T03:56:32.934Z,5.53
2018-09-18T04:01:37.609Z,5.08
2018-09-18T04:06:41.935Z,5.85
2018-09-18T04:11:46.478Z,5.17
2018-09-18T04:16:50.901Z,5.65
2018-09-18T04:21:55.380Z,5.95
2018-09-18T04:27:01.527Z,6.10
2018-09-18T04:32:06.222Z,6.28
2018-09-18T04:37:11.951Z,6.45
2018-09-18T04:42:16.798Z,7.05
2018-09-18T04:47:21.432Z,6.60
2018-09-18T04:52:26.042Z,5.78
2018-09-18T04:57:30.568Z,6.70
2018-09-18T05:02:34.880Z,6.20
2018-09-18T05:07:39.214Z,5.90
2018-09-18T05:12:43.781Z,16.52
2018-09-18T05:17:48.355Z,6.62
2018-09-18T05:22:53.569Z,7.37
2018-09-18T05:27:57.900Z,7.10
2018-09-18T05:33:02.330Z,7.60
2018-09-18T05:38:06.558Z,7.75
2018-09-18T05:43:10.875Z,6.33
2018-09-18T05:48:15.549Z,7.15
2018-09-18T05:53:20.155Z,6.03
2018-09-18T05:58:25.152Z,20.30
2018-09-18T06:03:29.963Z,16.67
2018-09-18T06:08:35.628Z,6.30
2018-09-18T06:13:40.954Z,6.28
2018-09-18T06:18:46.234Z,6.05
2018-09-18T06:23:51.242Z,6.33
2018-09-18T06:28:56.320Z,6.60
2018-09-18T06:34:00.925Z,6.90
2018-09-18T06:39:08.296Z,6.70
2018-09-18T06:44:12.865Z,7.10
2018-09-18T06:49:17.430Z,6.58
2018-09-18T06:54:22.508Z,6.47
2018-09-18T06:59:27.022Z,7.03
2018-09-18T07:04:31.359Z,7.03
2018-09-18T07:09:36.337Z,6.95
2018-09-18T07:14:40.784Z,6.95
2018-09-18T07:19:45.168Z,7.50
2018-09-18T07:24:49.624Z,7.47
2018-09-18T07:29:54.540Z,8.40
2018-09-18T07:34:59.535Z,7.67
2018-09-18T07:40:04.192Z,7.55
2018-09-18T07:45:09.419Z,7.53
2018-09-18T07:50:15.189Z,8.15
2018-09-18T07:55:20.167Z,8.75
2018-09-18T08:00:25.704Z,7.62
2018-09-18T08:05:36.035Z,7.85
2018-09-18T08:10:42.806Z,7.65
2018-09-18T08:15:48.188Z,8.10
2018-09-18T08:20:52.673Z,8.70
2018-09-18T08:25:57.368Z,8.78
2018-09-18T08:31:02.046Z,8.35
2018-09-18T08:36:06.635Z,7.97
2018-09-18T08:41:11.219Z,8.33
2018-09-18T08:46:16.215Z,8.58
2018-09-18T08:51:20.926Z,8.18
2018-09-18T08:56:25.402Z,8.50
2018-09-18T09:01:30.227Z,7.97
2018-09-18T09:06:34.687Z,7.92
2018-09-18T09:11:38.897Z,7.90
2018-09-18T09:16:43.504Z,8.38
2018-09-18T09:21:48.100Z,7.12
2018-09-18T09:26:52.825Z,6.83
2018-09-18T09:31:57.473Z,8.53
2018-09-18T09:37:02.042Z,7.80
2018-09-18T09:42:07.062Z,7.83
2018-09-18T09:47:11.782Z,6.92
2018-09-18T09:52:16.304Z,6.97
2018-09-18T09:57:21.223Z,8.30
2018-09-18T10:02:28.580Z,7.45
2018-09-18T10:07:33.284Z,8.15
2018-09-18T10:12:37.819Z,7.58
2018-09-18T10:17:43.679Z,6.28
2018-09-18T10:22:48.110Z,6.58
2018-09-18T10:27:53.651Z,6.50
2018-09-18T10:32:58.297Z,5.58
2018-09-18T10:38:02.755Z,6.65
2018-09-18T10:43:07.784Z,8.33
2018-09-18T10:48:13.270Z,6.45
2018-09-18T10:53:18.494Z,6.87
2018-09-18T10:58:23.044Z,6.90
2018-09-18T11:03:27.675Z,7.10
2018-09-18T11:08:32.161Z,6.80
2018-09-18T11:13:36.481Z,7.58
2018-09-18T11:18:41.587Z,7.95
2018-09-18T11:23:46.107Z,7.00
2018-09-18T11:28:50.614Z,7.83
2018-09-18T11:33:55.412Z,8.15
2018-09-18T11:39:00.004Z,7.85
2018-09-18T11:44:05.127Z,8.13
2018-09-18T11:49:09.671Z,8.45
2018-09-18T11:54:14.313Z,8.05
2018-09-18T11:59:18.719Z,7.45
2018-09-18T12:04:23.285Z,9.08
2018-09-18T12:09:28.591Z,6.47
2018-09-18T12:14:33.709Z,7.72
2018-09-18T12:19:38.823Z,7.83
2018-09-18T12:24:43.575Z,7.40
2018-09-18T12:29:48.217Z,7.40
2018-09-18T12:34:52.725Z,7.25
2018-09-18T12:39:57.339Z,7.17
2018-09-18T12:45:01.850Z,6.90
2018-09-18T12:50:07.541Z,7.08
2018-09-18T12:55:12.049Z,6.12
2018-09-18T13:00:16.615Z,7.78
2018-09-18T13:05:21.163Z,7.40
2018-09-18T13:10:26.112Z,7.65
2018-09-18T13:15:31.363Z,8.43
2018-09-18T13:20:36.074Z,8.08
2018-09-18T13:25:40.369Z,8.73
2018-09-18T13:30:45.411Z,8.40
2018-09-18T13:35:49.949Z,8.60
2018-09-18T13:40:54.595Z,8.65
2018-09-18T13:45:59.106Z,6.85
2018-09-18T13:51:05.207Z,7.33
2018-09-18T13:56:09.822Z,6.75
2018-09-18T14:01:14.227Z,7.72
2018-09-18T14:06:18.951Z,7.95
2018-09-18T14:11:23.511Z,6.08
2018-09-18T14:16:27.999Z,6.20
2018-09-18T14:21:32.871Z,6.50
2018-09-18T14:26:38.492Z,7.85
2018-09-18T14:31:43.079Z,6.12
2018-09-18T14:36:50.315Z,7.28
2018-09-18T14:41:55.015Z,7.87
2018-09-18T14:46:59.479Z,7.10
2018-09-18T14:52:04.648Z,10.43
2018-09-18T14:57:09.181Z,6.08
2018-09-18T15:02:14.113Z,6.17
2018-09-18T15:07:19.469Z,5.58
2018-09-18T15:12:23.887Z,6.28
2018-09-18T15:17:29.135Z,5.37
2018-09-18T15:22:34.439Z,5.83
2018-09-18T15:27:38.921Z,6.50
2018-09-18T15:32:48.482Z,5.92
2018-09-18T15:37:53.279Z,5.83
2018-09-18T15:42:57.914Z,5.45
2018-09-18T15:48:06.527Z,5.08
2018-09-18T15:53:11.338Z,4.28
2018-09-18T15:58:15.866Z,4.60
2018-09-18T16:03:21.413Z,4.17
2018-09-18T16:08:25.749Z,4.60
2018-09-18T16:13:30.591Z,4.37
2018-09-18T16:18:35.184Z,4.97
2018-09-18T16:23:39.676Z,5.25
2018-09-18T16:28:44.782Z,5.10
2018-09-18T16:39:15.228Z,5.25
2018-09-18T16:44:20.346Z,5.83
2018-09-18T16:49:25.098Z,5.58
2018-09-18T16:54:30.473Z,5.60
2018-09-18T16:59:35.037Z,5.80
2018-09-18T17:04:39.553Z,5.85
2018-09-18T17:09:43.995Z,5.70
2018-09-18T17:14:48.630Z,6.35
2018-09-18T17:19:59.569Z,5.67
2018-09-18T17:25:04.630Z,6.35
2018-09-18T17:30:10.560Z,5.58
2018-09-18T17:35:15.111Z,5.58
2018-09-18T17:40:19.808Z,7.20
2018-09-18T17:45:25.223Z,5.37
2018-09-18T17:50:30.019Z,5.58
2018-09-18T17:55:35.304Z,5.62
2018-09-18T18:00:39.846Z,5.40
2018-09-18T18:05:44.507Z,6.10
2018-09-18T18:10:48.914Z,6.50
2018-09-18T18:15:53.406Z,6.58
2018-09-18T18:20:58.654Z,5.95
2018-09-18T18:26:04.053Z,6.03
2018-09-18T18:31:08.552Z,5.87
2018-09-18T18:36:13.415Z,5.25
2018-09-18T18:41:18.038Z,5.50
2018-09-18T18:46:23.301Z,5.37
2018-09-18T18:51:28.472Z,5.22
2018-09-18T18:56:34.341Z,5.37
2018-09-18T19:01:39.075Z,5.42
2018-09-18T19:06:44.341Z,5.15
2018-09-18T19:11:51.158Z,6.20
2018-09-18T19:16:57.819Z,6.12
2018-09-18T19:22:04.357Z,5.70
2018-09-18T19:27:11.300Z,5.75
2018-09-18T19:32:17.671Z,6.50
2018-09-18T19:37:26.998Z,6.25
2018-09-18T19:42:33.817Z,7.12
2018-09-18T19:47:40.319Z,6.60
2018-09-18T19:52:48.546Z,6.45
2018-09-18T19:57:54.230Z,7.65
2018-09-18T20:02:59.661Z,7.47
2018-09-18T20:08:05.251Z,7.80
2018-09-18T20:13:14.466Z,7.95
2018-09-18T20:18:19.273Z,8.08
2018-09-18T20:23:24.527Z,7.58
2018-09-18T20:28:30.075Z,7.78
2018-09-18T20:33:35.056Z,7.67
2018-09-18T20:38:39.946Z,6.47
2018-09-18T20:43:45.134Z,7.28
2018-09-18T20:48:50.182Z,11.20
2018-09-18T20:53:54.865Z,10.23
2018-09-18T20:59:01.210Z,7.55
2018-09-18T21:04:07.225Z,6.25
2018-09-18T21:09:14.593Z,3.12
2018-09-18T21:14:22.202Z,2.02
2018-09-18T21:19:29.726Z,2.62
2018-09-18T21:24:34.448Z,2.70
2018-09-18T21:29:39.515Z,2.47
2018-09-18T21:34:44.438Z,2.37
2018-09-18T21:39:56.422Z,2.50
2018-09-18T21:45:02.261Z,1.87
2018-09-18T21:50:07.744Z,2.12
2018-09-18T21:55:18.580Z,3.87
2018-09-18T22:00:25.438Z,3.45
2018-09-18T22:05:34.293Z,3.42
2018-09-18T22:10:38.841Z,3.22
2018-09-18T22:15:43.813Z,3.40
2018-09-18T22:20:49.027Z,3.50
2018-09-18T22:25:53.544Z,2.92
2018-09-18T22:30:58.166Z,2.95
2018-09-18T22:36:02.630Z,2.83
2018-09-18T22:41:07.180Z,2.75
2018-09-18T22:46:11.804Z,2.58
2018-09-18T22:51:16.452Z,2.42
2018-09-18T22:56:20.848Z,2.70
2018-09-18T23:01:25.520Z,2.80
2018-09-18T23:06:30.749Z,2.45
2018-09-18T23:11:35.490Z,3.00
2018-09-18T23:16:40.079Z,3.02
2018-09-18T23:21:45.319Z,2.75
2018-09-18T23:26:49.622Z,2.65
2018-09-18T23:31:54.661Z,3.20
2018-09-18T23:36:59.408Z,2.90
2018-09-18T23:42:04.521Z,2.60
2018-09-18T23:47:09.262Z,2.87
2018-09-18T23:52:13.926Z,2.40
2018-09-18T23:57:18.456Z,2.37
